Townsend, Washington
Current Conditions -  °F | °C
As of 11:56 PM on Sunday 25 Jan 2015 (Local Time) from KNUW Reporting Station
Moderate Fog Moderate Fog  
Wind Chill: 47°   Ceiling: 200
Heat Index: 47°   Visibility: 0.25mi
Dew Point: 44°   Wind: 0mph
Humidity: 90%   Direction: NA
Pressure: 29.98"   Gusts: NA
Location:  48.026°N, 122.859°W
Report Text: KNUW 260756Z 00000KT 1/4SM FG VV002 08/07 A2998 RMK AO2 TWR VIS 1/2 SLP157 T00830067 401440072 VISNO E $
Loading
Personal Weather Stations






























Interactive Weather Map New forecast layout! Learn more

10-Day Weather Forecast

Advertisements
Track Severe Weather on mobile